sensor_id;sensor_type;location;lat;lon;timestamp;P1;durP1;ratioP1;P2;durP2;ratioP2
51738;SDS011;37815;52.692;6.226;2023-09-18T00:00:10;9.48;;;8.10;;
51738;SDS011;37815;52.692;6.226;2023-09-18T00:05:12;9.38;;;8.27;;
51738;SDS011;37815;52.692;6.226;2023-09-18T00:10:15;10.23;;;8.52;;
51738;SDS011;37815;52.692;6.226;2023-09-18T00:15:16;9.45;;;8.13;;
51738;SDS011;37815;52.692;6.226;2023-09-18T00:20:16;10.20;;;8.38;;
51738;SDS011;37815;52.692;6.226;2023-09-18T00:25:18;10.05;;;8.48;;
51738;SDS011;37815;52.692;6.226;2023-09-18T00:30:19;9.83;;;8.23;;
51738;SDS011;37815;52.692;6.226;2023-09-18T00:35:19;10.65;;;9.07;;
51738;SDS011;37815;52.692;6.226;2023-09-18T00:40:22;9.07;;;8.02;;
51738;SDS011;37815;52.692;6.226;2023-09-18T00:45:23;9.90;;;8.55;;
51738;SDS011;37815;52.692;6.226;2023-09-18T00:50:23;10.02;;;8.32;;
51738;SDS011;37815;52.692;6.226;2023-09-18T00:55:24;10.27;;;8.40;;
51738;SDS011;37815;52.692;6.226;2023-09-18T01:00:25;10.07;;;8.20;;
51738;SDS011;37815;52.692;6.226;2023-09-18T01:05:26;9.53;;;8.17;;
51738;SDS011;37815;52.692;6.226;2023-09-18T01:10:28;10.73;;;8.40;;
51738;SDS011;37815;52.692;6.226;2023-09-18T01:15:57;9.97;;;8.50;;
51738;SDS011;37815;52.692;6.226;2023-09-18T01:21:04;9.32;;;8.13;;
51738;SDS011;37815;52.692;6.226;2023-09-18T01:26:05;10.40;;;8.30;;
51738;SDS011;37815;52.692;6.226;2023-09-18T01:31:06;9.60;;;8.60;;
51738;SDS011;37815;52.692;6.226;2023-09-18T01:36:07;10.67;;;8.83;;
51738;SDS011;37815;52.692;6.226;2023-09-18T01:41:08;9.27;;;8.23;;
51738;SDS011;37815;52.692;6.226;2023-09-18T01:46:09;11.10;;;8.88;;
51738;SDS011;37815;52.692;6.226;2023-09-18T01:51:13;9.80;;;8.50;;
51738;SDS011;37815;52.692;6.226;2023-09-18T01:56:16;10.55;;;8.93;;
51738;SDS011;37815;52.692;6.226;2023-09-18T02:01:17;10.45;;;9.18;;
51738;SDS011;37815;52.692;6.226;2023-09-18T02:06:17;11.05;;;8.90;;
51738;SDS011;37815;52.692;6.226;2023-09-18T02:11:18;10.77;;;9.25;;
51738;SDS011;37815;52.692;6.226;2023-09-18T02:16:18;11.00;;;9.47;;
51738;SDS011;37815;52.692;6.226;2023-09-18T02:21:24;10.50;;;9.05;;
51738;SDS011;37815;52.692;6.226;2023-09-18T02:26:25;11.18;;;9.10;;
51738;SDS011;37815;52.692;6.226;2023-09-18T02:31:26;9.85;;;8.57;;
51738;SDS011;37815;52.692;6.226;2023-09-18T02:36:27;10.82;;;8.77;;
51738;SDS011;37815;52.692;6.226;2023-09-18T02:41:28;11.80;;;9.48;;
51738;SDS011;37815;52.692;6.226;2023-09-18T02:46:28;11.25;;;9.45;;
51738;SDS011;37815;52.692;6.226;2023-09-18T02:51:29;10.45;;;9.25;;
51738;SDS011;37815;52.692;6.226;2023-09-18T02:56:32;11.43;;;9.63;;
51738;SDS011;37815;52.692;6.226;2023-09-18T03:01:32;9.93;;;8.90;;
51738;SDS011;37815;52.692;6.226;2023-09-18T03:06:33;11.10;;;9.68;;
51738;SDS011;37815;52.692;6.226;2023-09-18T03:11:33;11.30;;;9.60;;
51738;SDS011;37815;52.692;6.226;2023-09-18T03:16:34;10.95;;;9.15;;
51738;SDS011;37815;52.692;6.226;2023-09-18T03:21:35;10.52;;;9.30;;
51738;SDS011;37815;52.692;6.226;2023-09-18T03:26:35;13.20;;;10.10;;
51738;SDS011;37815;52.692;6.226;2023-09-18T03:31:36;12.77;;;10.10;;
51738;SDS011;37815;52.692;6.226;2023-09-18T03:36:36;11.82;;;10.52;;
51738;SDS011;37815;52.692;6.226;2023-09-18T03:41:39;11.33;;;9.70;;
51738;SDS011;37815;52.692;6.226;2023-09-18T03:46:39;12.83;;;9.90;;
51738;SDS011;37815;52.692;6.226;2023-09-18T03:51:40;11.10;;;10.00;;
51738;SDS011;37815;52.692;6.226;2023-09-18T03:56:40;11.57;;;9.80;;
51738;SDS011;37815;52.692;6.226;2023-09-18T04:01:41;11.10;;;9.90;;
51738;SDS011;37815;52.692;6.226;2023-09-18T04:06:42;11.27;;;9.73;;
51738;SDS011;37815;52.692;6.226;2023-09-18T04:11:44;10.88;;;9.77;;
51738;SDS011;37815;52.692;6.226;2023-09-18T04:16:44;12.13;;;10.23;;
51738;SDS011;37815;52.692;6.226;2023-09-18T04:21:45;12.20;;;10.48;;
51738;SDS011;37815;52.692;6.226;2023-09-18T04:26:45;11.52;;;10.32;;
51738;SDS011;37815;52.692;6.226;2023-09-18T04:31:46;12.80;;;10.40;;
51738;SDS011;37815;52.692;6.226;2023-09-18T04:36:48;12.77;;;10.68;;
51738;SDS011;37815;52.692;6.226;2023-09-18T04:41:48;12.80;;;11.07;;
51738;SDS011;37815;52.692;6.226;2023-09-18T04:46:49;13.03;;;11.07;;
51738;SDS011;37815;52.692;6.226;2023-09-18T04:51:49;12.80;;;11.03;;
51738;SDS011;37815;52.692;6.226;2023-09-18T04:56:50;14.57;;;12.50;;
51738;SDS011;37815;52.692;6.226;2023-09-18T05:01:51;13.57;;;11.20;;
51738;SDS011;37815;52.692;6.226;2023-09-18T05:06:51;12.53;;;11.10;;
51738;SDS011;37815;52.692;6.226;2023-09-18T05:11:52;12.70;;;11.10;;
51738;SDS011;37815;52.692;6.226;2023-09-18T05:16:52;16.10;;;13.57;;
51738;SDS011;37815;52.692;6.226;2023-09-18T05:21:53;12.97;;;11.50;;
51738;SDS011;37815;52.692;6.226;2023-09-18T05:26:54;14.47;;;12.00;;
51738;SDS011;37815;52.692;6.226;2023-09-18T05:31:54;13.70;;;11.57;;
51738;SDS011;37815;52.692;6.226;2023-09-18T05:36:55;12.93;;;11.30;;
51738;SDS011;37815;52.692;6.226;2023-09-18T05:41:55;17.20;;;14.43;;
51738;SDS011;37815;52.692;6.226;2023-09-18T05:46:56;12.67;;;11.23;;
51738;SDS011;37815;52.692;6.226;2023-09-18T05:51:56;14.00;;;11.57;;
51738;SDS011;37815;52.692;6.226;2023-09-18T05:56:57;13.33;;;11.30;;
51738;SDS011;37815;52.692;6.226;2023-09-18T06:01:58;15.00;;;11.87;;
51738;SDS011;37815;52.692;6.226;2023-09-18T06:06:58;15.03;;;12.70;;
51738;SDS011;37815;52.692;6.226;2023-09-18T06:11:59;13.30;;;11.70;;
51738;SDS011;37815;52.692;6.226;2023-09-18T06:17:00;13.77;;;12.27;;
51738;SDS011;37815;52.692;6.226;2023-09-18T06:22:01;15.77;;;12.57;;
51738;SDS011;37815;52.692;6.226;2023-09-18T06:27:02;13.33;;;11.63;;
51738;SDS011;37815;52.692;6.226;2023-09-18T06:32:06;14.50;;;12.57;;
51738;SDS011;37815;52.692;6.226;2023-09-18T06:37:07;14.00;;;11.63;;
51738;SDS011;37815;52.692;6.226;2023-09-18T06:42:08;13.57;;;11.70;;
51738;SDS011;37815;52.692;6.226;2023-09-18T06:47:09;13.57;;;11.63;;
51738;SDS011;37815;52.692;6.226;2023-09-18T06:52:10;13.20;;;11.37;;
51738;SDS011;37815;52.692;6.226;2023-09-18T06:57:10;13.53;;;12.10;;
51738;SDS011;37815;52.692;6.226;2023-09-18T07:02:11;14.87;;;12.60;;
51738;SDS011;37815;52.692;6.226;2023-09-18T07:07:15;16.92;;;12.95;;
51738;SDS011;37815;52.692;6.226;2023-09-18T07:12:15;15.02;;;13.02;;
51738;SDS011;37815;52.692;6.226;2023-09-18T07:17:19;14.47;;;12.90;;
51738;SDS011;37815;52.692;6.226;2023-09-18T07:22:20;16.17;;;13.30;;
51738;SDS011;37815;52.692;6.226;2023-09-18T07:27:20;15.53;;;13.27;;
51738;SDS011;37815;52.692;6.226;2023-09-18T07:32:21;15.67;;;13.33;;
51738;SDS011;37815;52.692;6.226;2023-09-18T07:37:21;15.73;;;12.80;;
51738;SDS011;37815;52.692;6.226;2023-09-18T07:42:25;15.07;;;12.90;;
51738;SDS011;37815;52.692;6.226;2023-09-18T07:47:26;15.10;;;13.10;;
51738;SDS011;37815;52.692;6.226;2023-09-18T07:52:27;16.97;;;13.47;;
51738;SDS011;37815;52.692;6.226;2023-09-18T07:57:29;16.30;;;13.23;;
51738;SDS011;37815;52.692;6.226;2023-09-18T08:02:31;16.70;;;12.77;;
51738;SDS011;37815;52.692;6.226;2023-09-18T08:07:32;14.87;;;12.47;;
51738;SDS011;37815;52.692;6.226;2023-09-18T08:12:33;15.15;;;12.60;;
51738;SDS011;37815;52.692;6.226;2023-09-18T08:17:34;13.47;;;11.73;;
51738;SDS011;37815;52.692;6.226;2023-09-18T08:22:35;14.67;;;12.33;;
51738;SDS011;37815;52.692;6.226;2023-09-18T08:27:41;13.90;;;11.57;;
51738;SDS011;37815;52.692;6.226;2023-09-18T08:32:44;14.23;;;11.82;;
51738;SDS011;37815;52.692;6.226;2023-09-18T08:37:45;13.70;;;11.32;;
51738;SDS011;37815;52.692;6.226;2023-09-18T08:42:46;13.57;;;11.23;;
51738;SDS011;37815;52.692;6.226;2023-09-18T08:47:48;12.82;;;11.05;;
51738;SDS011;37815;52.692;6.226;2023-09-18T08:52:51;14.10;;;11.20;;
51738;SDS011;37815;52.692;6.226;2023-09-18T08:57:52;13.90;;;11.48;;
51738;SDS011;37815;52.692;6.226;2023-09-18T09:02:54;14.32;;;11.20;;
51738;SDS011;37815;52.692;6.226;2023-09-18T09:07:55;13.27;;;10.83;;
51738;SDS011;37815;52.692;6.226;2023-09-18T09:12:57;12.48;;;10.80;;
51738;SDS011;37815;52.692;6.226;2023-09-18T09:18:02;12.47;;;10.57;;
51738;SDS011;37815;52.692;6.226;2023-09-18T09:23:05;13.50;;;10.87;;
51738;SDS011;37815;52.692;6.226;2023-09-18T09:28:08;12.93;;;10.80;;
51738;SDS011;37815;52.692;6.226;2023-09-18T09:33:11;12.13;;;9.80;;
51738;SDS011;37815;52.692;6.226;2023-09-18T09:38:12;12.57;;;10.50;;
51738;SDS011;37815;52.692;6.226;2023-09-18T09:43:16;12.35;;;9.93;;
51738;SDS011;37815;52.692;6.226;2023-09-18T09:48:18;11.48;;;9.60;;
51738;SDS011;37815;52.692;6.226;2023-09-18T09:53:23;12.80;;;9.88;;
51738;SDS011;37815;52.692;6.226;2023-09-18T09:58:41;12.32;;;9.63;;
51738;SDS011;37815;52.692;6.226;2023-09-18T10:03:44;12.73;;;9.52;;
51738;SDS011;37815;52.692;6.226;2023-09-18T10:08:46;12.45;;;9.73;;
51738;SDS011;37815;52.692;6.226;2023-09-18T10:13:48;9.77;;;8.43;;
51738;SDS011;37815;52.692;6.226;2023-09-18T10:19:13;10.23;;;8.68;;
51738;SDS011;37815;52.692;6.226;2023-09-18T10:24:24;9.85;;;8.18;;
51738;SDS011;37815;52.692;6.226;2023-09-18T10:29:25;12.05;;;8.13;;
51738;SDS011;37815;52.692;6.226;2023-09-18T10:34:26;9.23;;;7.57;;
51738;SDS011;37815;52.692;6.226;2023-09-18T10:39:30;9.75;;;8.13;;
51738;SDS011;37815;52.692;6.226;2023-09-18T10:44:34;9.47;;;7.63;;
51738;SDS011;37815;52.692;6.226;2023-09-18T10:49:35;9.33;;;8.27;;
51738;SDS011;37815;52.692;6.226;2023-09-18T10:54:36;8.80;;;7.90;;
51738;SDS011;37815;52.692;6.226;2023-09-18T10:59:44;9.60;;;7.70;;
51738;SDS011;37815;52.692;6.226;2023-09-18T11:04:45;8.52;;;7.60;;
51738;SDS011;37815;52.692;6.226;2023-09-18T11:09:47;8.43;;;7.30;;
51738;SDS011;37815;52.692;6.226;2023-09-18T11:20:06;8.25;;;7.10;;
51738;SDS011;37815;52.692;6.226;2023-09-18T11:30:37;8.82;;;7.20;;
51738;SDS011;37815;52.692;6.226;2023-09-18T11:35:51;8.70;;;7.20;;
51738;SDS011;37815;52.692;6.226;2023-09-18T11:40:52;10.05;;;7.00;;
51738;SDS011;37815;52.692;6.226;2023-09-18T11:45:54;8.13;;;7.13;;
51738;SDS011;37815;52.692;6.226;2023-09-18T11:50:57;7.90;;;6.63;;
51738;SDS011;37815;52.692;6.226;2023-09-18T11:55:59;8.73;;;6.78;;
51738;SDS011;37815;52.692;6.226;2023-09-18T12:01:00;7.50;;;6.50;;
51738;SDS011;37815;52.692;6.226;2023-09-18T12:06:12;7.20;;;6.38;;
51738;SDS011;37815;52.692;6.226;2023-09-18T12:11:13;7.22;;;6.53;;
51738;SDS011;37815;52.692;6.226;2023-09-18T12:16:16;8.40;;;6.25;;
51738;SDS011;37815;52.692;6.226;2023-09-18T12:21:19;8.32;;;6.70;;
51738;SDS011;37815;52.692;6.226;2023-09-18T12:26:20;6.72;;;6.10;;
51738;SDS011;37815;52.692;6.226;2023-09-18T12:31:20;8.05;;;6.40;;
51738;SDS011;37815;52.692;6.226;2023-09-18T12:36:21;8.75;;;6.20;;
51738;SDS011;37815;52.692;6.226;2023-09-18T12:41:23;8.73;;;6.23;;
51738;SDS011;37815;52.692;6.226;2023-09-18T12:46:25;7.40;;;5.90;;
51738;SDS011;37815;52.692;6.226;2023-09-18T12:51:29;7.20;;;6.03;;
51738;SDS011;37815;52.692;6.226;2023-09-18T12:56:32;7.30;;;6.10;;
51738;SDS011;37815;52.692;6.226;2023-09-18T13:01:32;7.53;;;5.60;;
51738;SDS011;37815;52.692;6.226;2023-09-18T13:06:33;6.77;;;5.50;;
51738;SDS011;37815;52.692;6.226;2023-09-18T13:11:50;5.97;;;5.37;;
51738;SDS011;37815;52.692;6.226;2023-09-18T13:16:52;6.95;;;5.30;;
51738;SDS011;37815;52.692;6.226;2023-09-18T13:21:53;7.28;;;5.60;;
51738;SDS011;37815;52.692;6.226;2023-09-18T13:26:54;6.30;;;5.30;;
51738;SDS011;37815;52.692;6.226;2023-09-18T13:31:56;9.07;;;5.97;;
51738;SDS011;37815;52.692;6.226;2023-09-18T13:36:57;6.50;;;5.30;;
51738;SDS011;37815;52.692;6.226;2023-09-18T13:41:57;7.07;;;5.90;;
51738;SDS011;37815;52.692;6.226;2023-09-18T13:46:58;7.33;;;5.67;;
51738;SDS011;37815;52.692;6.226;2023-09-18T13:51:59;6.95;;;5.72;;
51738;SDS011;37815;52.692;6.226;2023-09-18T13:57:00;8.45;;;5.80;;
51738;SDS011;37815;52.692;6.226;2023-09-18T14:02:04;6.18;;;4.68;;
51738;SDS011;37815;52.692;6.226;2023-09-18T14:07:06;5.87;;;4.00;;
51738;SDS011;37815;52.692;6.226;2023-09-18T14:12:08;6.68;;;4.10;;
51738;SDS011;37815;52.692;6.226;2023-09-18T14:17:09;6.32;;;3.97;;
51738;SDS011;37815;52.692;6.226;2023-09-18T14:22:10;6.00;;;3.83;;
51738;SDS011;37815;52.692;6.226;2023-09-18T14:27:11;6.40;;;4.23;;
51738;SDS011;37815;52.692;6.226;2023-09-18T14:32:12;5.97;;;3.90;;
51738;SDS011;37815;52.692;6.226;2023-09-18T14:37:13;6.47;;;3.80;;
51738;SDS011;37815;52.692;6.226;2023-09-18T14:42:14;7.72;;;3.50;;
51738;SDS011;37815;52.692;6.226;2023-09-18T14:47:15;5.90;;;3.55;;
51738;SDS011;37815;52.692;6.226;2023-09-18T14:52:16;3.92;;;3.08;;
51738;SDS011;37815;52.692;6.226;2023-09-18T14:57:18;6.22;;;3.30;;
51738;SDS011;37815;52.692;6.226;2023-09-18T15:02:19;8.87;;;3.40;;
51738;SDS011;37815;52.692;6.226;2023-09-18T15:07:20;6.47;;;3.20;;
51738;SDS011;37815;52.692;6.226;2023-09-18T15:12:20;4.27;;;2.90;;
51738;SDS011;37815;52.692;6.226;2023-09-18T15:17:22;4.40;;;2.70;;
51738;SDS011;37815;52.692;6.226;2023-09-18T15:22:23;4.00;;;2.70;;
51738;SDS011;37815;52.692;6.226;2023-09-18T15:27:25;4.77;;;2.47;;
51738;SDS011;37815;52.692;6.226;2023-09-18T15:32:25;4.27;;;2.17;;
51738;SDS011;37815;52.692;6.226;2023-09-18T15:37:31;5.40;;;2.70;;
51738;SDS011;37815;52.692;6.226;2023-09-18T15:42:32;5.73;;;2.83;;
51738;SDS011;37815;52.692;6.226;2023-09-18T15:47:33;3.70;;;2.73;;
51738;SDS011;37815;52.692;6.226;2023-09-18T15:52:33;5.60;;;2.60;;
51738;SDS011;37815;52.692;6.226;2023-09-18T15:57:35;4.95;;;2.85;;
51738;SDS011;37815;52.692;6.226;2023-09-18T16:02:39;4.13;;;2.60;;
51738;SDS011;37815;52.692;6.226;2023-09-18T16:07:41;4.18;;;2.80;;
51738;SDS011;37815;52.692;6.226;2023-09-18T16:12:44;4.10;;;2.65;;
51738;SDS011;37815;52.692;6.226;2023-09-18T16:17:45;4.40;;;3.00;;
51738;SDS011;37815;52.692;6.226;2023-09-18T16:22:45;4.40;;;3.05;;
51738;SDS011;37815;52.692;6.226;2023-09-18T16:27:46;4.85;;;3.42;;
51738;SDS011;37815;52.692;6.226;2023-09-18T16:32:47;5.13;;;3.10;;
51738;SDS011;37815;52.692;6.226;2023-09-18T16:37:48;6.43;;;4.30;;
51738;SDS011;37815;52.692;6.226;2023-09-18T16:42:48;4.82;;;3.15;;
51738;SDS011;37815;52.692;6.226;2023-09-18T16:47:51;3.60;;;3.20;;
51738;SDS011;37815;52.692;6.226;2023-09-18T16:52:53;4.15;;;2.97;;
51738;SDS011;37815;52.692;6.226;2023-09-18T16:57:53;4.53;;;2.80;;
51738;SDS011;37815;52.692;6.226;2023-09-18T17:02:55;3.57;;;2.90;;
51738;SDS011;37815;52.692;6.226;2023-09-18T17:07:56;3.85;;;2.55;;
51738;SDS011;37815;52.692;6.226;2023-09-18T17:12:56;3.88;;;3.00;;
51738;SDS011;37815;52.692;6.226;2023-09-18T17:17:57;3.97;;;3.20;;
51738;SDS011;37815;52.692;6.226;2023-09-18T17:23:00;3.38;;;2.70;;
51738;SDS011;37815;52.692;6.226;2023-09-18T17:28:01;4.10;;;2.80;;
51738;SDS011;37815;52.692;6.226;2023-09-18T17:33:04;5.20;;;3.33;;
51738;SDS011;37815;52.692;6.226;2023-09-18T17:38:05;3.87;;;2.93;;
51738;SDS011;37815;52.692;6.226;2023-09-18T17:43:06;4.87;;;2.57;;
51738;SDS011;37815;52.692;6.226;2023-09-18T17:48:07;3.08;;;2.70;;
51738;SDS011;37815;52.692;6.226;2023-09-18T17:53:09;3.08;;;2.50;;
51738;SDS011;37815;52.692;6.226;2023-09-18T17:58:09;4.07;;;3.53;;
51738;SDS011;37815;52.692;6.226;2023-09-18T18:03:10;3.13;;;2.50;;
51738;SDS011;37815;52.692;6.226;2023-09-18T18:08:12;4.63;;;2.60;;
51738;SDS011;37815;52.692;6.226;2023-09-18T18:13:13;3.55;;;2.58;;
51738;SDS011;37815;52.692;6.226;2023-09-18T18:18:14;3.88;;;2.45;;
51738;SDS011;37815;52.692;6.226;2023-09-18T18:23:22;4.10;;;2.90;;
51738;SDS011;37815;52.692;6.226;2023-09-18T18:28:22;3.87;;;2.87;;
51738;SDS011;37815;52.692;6.226;2023-09-18T18:33:23;3.50;;;2.47;;
51738;SDS011;37815;52.692;6.226;2023-09-18T18:38:24;4.20;;;2.90;;
51738;SDS011;37815;52.692;6.226;2023-09-18T18:43:24;4.13;;;2.60;;
51738;SDS011;37815;52.692;6.226;2023-09-18T18:48:26;4.50;;;3.13;;
51738;SDS011;37815;52.692;6.226;2023-09-18T18:53:27;3.55;;;2.50;;
51738;SDS011;37815;52.692;6.226;2023-09-18T18:58:30;3.00;;;2.37;;
51738;SDS011;37815;52.692;6.226;2023-09-18T19:03:32;3.47;;;2.78;;
51738;SDS011;37815;52.692;6.226;2023-09-18T19:08:39;4.07;;;2.75;;
51738;SDS011;37815;52.692;6.226;2023-09-18T19:13:42;4.30;;;2.90;;
51738;SDS011;37815;52.692;6.226;2023-09-18T19:18:43;3.35;;;2.40;;
51738;SDS011;37815;52.692;6.226;2023-09-18T19:23:44;3.13;;;2.63;;
51738;SDS011;37815;52.692;6.226;2023-09-18T19:28:46;4.40;;;3.03;;
51738;SDS011;37815;52.692;6.226;2023-09-18T19:33:47;4.07;;;2.88;;
51738;SDS011;37815;52.692;6.226;2023-09-18T19:38:48;4.10;;;3.17;;
51738;SDS011;37815;52.692;6.226;2023-09-18T19:43:50;4.10;;;3.00;;
51738;SDS011;37815;52.692;6.226;2023-09-18T19:48:51;3.93;;;3.30;;
51738;SDS011;37815;52.692;6.226;2023-09-18T19:53:51;5.97;;;2.53;;
51738;SDS011;37815;52.692;6.226;2023-09-18T19:58:53;3.90;;;2.78;;
51738;SDS011;37815;52.692;6.226;2023-09-18T20:03:54;4.37;;;2.83;;
51738;SDS011;37815;52.692;6.226;2023-09-18T20:08:54;3.67;;;2.70;;
51738;SDS011;37815;52.692;6.226;2023-09-18T20:13:56;4.90;;;3.17;;
51738;SDS011;37815;52.692;6.226;2023-09-18T20:18:58;4.85;;;2.97;;
51738;SDS011;37815;52.692;6.226;2023-09-18T20:23:58;5.40;;;3.07;;
51738;SDS011;37815;52.692;6.226;2023-09-18T20:28:59;4.73;;;2.83;;
51738;SDS011;37815;52.692;6.226;2023-09-18T20:34:00;4.30;;;2.97;;
51738;SDS011;37815;52.692;6.226;2023-09-18T20:39:00;3.63;;;2.83;;
51738;SDS011;37815;52.692;6.226;2023-09-18T20:44:03;6.95;;;3.03;;
51738;SDS011;37815;52.692;6.226;2023-09-18T20:49:04;4.35;;;2.88;;
51738;SDS011;37815;52.692;6.226;2023-09-18T20:54:05;6.50;;;3.50;;
51738;SDS011;37815;52.692;6.226;2023-09-18T20:59:06;4.47;;;2.90;;
51738;SDS011;37815;52.692;6.226;2023-09-18T21:04:06;4.90;;;3.20;;
51738;SDS011;37815;52.692;6.226;2023-09-18T21:09:07;5.27;;;3.03;;
51738;SDS011;37815;52.692;6.226;2023-09-18T21:14:11;4.83;;;3.00;;
51738;SDS011;37815;52.692;6.226;2023-09-18T21:19:19;4.47;;;2.92;;
51738;SDS011;37815;52.692;6.226;2023-09-18T21:24:20;4.90;;;2.75;;
51738;SDS011;37815;52.692;6.226;2023-09-18T21:29:20;6.15;;;3.10;;
51738;SDS011;37815;52.692;6.226;2023-09-18T21:34:25;5.57;;;3.08;;
51738;SDS011;37815;52.692;6.226;2023-09-18T21:39:26;5.37;;;3.17;;
51738;SDS011;37815;52.692;6.226;2023-09-18T21:44:26;5.33;;;3.00;;
51738;SDS011;37815;52.692;6.226;2023-09-18T21:49:27;5.53;;;3.10;;
51738;SDS011;37815;52.692;6.226;2023-09-18T21:54:28;6.10;;;2.80;;
51738;SDS011;37815;52.692;6.226;2023-09-18T21:59:28;4.70;;;3.10;;
51738;SDS011;37815;52.692;6.226;2023-09-18T22:04:29;5.53;;;2.87;;
51738;SDS011;37815;52.692;6.226;2023-09-18T22:09:33;5.18;;;2.60;;
51738;SDS011;37815;52.692;6.226;2023-09-18T22:14:33;5.73;;;2.93;;
51738;SDS011;37815;52.692;6.226;2023-09-18T22:19:34;5.13;;;2.90;;
51738;SDS011;37815;52.692;6.226;2023-09-18T22:24:34;5.60;;;2.60;;
51738;SDS011;37815;52.692;6.226;2023-09-18T22:29:35;4.30;;;2.65;;
51738;SDS011;37815;52.692;6.226;2023-09-18T22:34:36;4.65;;;2.60;;
51738;SDS011;37815;52.692;6.226;2023-09-18T22:56:14;3.45;;;2.20;;
51738;SDS011;37815;52.692;6.226;2023-09-18T23:01:16;4.45;;;2.30;;
51738;SDS011;37815;52.692;6.226;2023-09-18T23:06:18;4.22;;;2.30;;
51738;SDS011;37815;52.692;6.226;2023-09-18T23:11:18;3.58;;;2.40;;
51738;SDS011;37815;52.692;6.226;2023-09-18T23:16:19;4.20;;;2.40;;
51738;SDS011;37815;52.692;6.226;2023-09-18T23:21:22;5.37;;;2.57;;
51738;SDS011;37815;52.692;6.226;2023-09-18T23:26:23;3.25;;;2.15;;
51738;SDS011;37815;52.692;6.226;2023-09-18T23:31:25;4.45;;;2.38;;
51738;SDS011;37815;52.692;6.226;2023-09-18T23:36:25;4.07;;;2.17;;
51738;SDS011;37815;52.692;6.226;2023-09-18T23:41:27;4.65;;;2.17;;
51738;SDS011;37815;52.692;6.226;2023-09-18T23:46:28;3.60;;;2.03;;
51738;SDS011;37815;52.692;6.226;2023-09-18T23:51:31;4.97;;;2.20;;
51738;SDS011;37815;52.692;6.226;2023-09-18T23:56:32;3.70;;;2.27;;
